Winchester, KS (66097)

3:01 AM CST on February 13, 2016 (GMT -0600)
Jefferson County | | Change Station
CLOSE
Current Station
Personal Weather Station
Location: McLouth, KS
Elevation: 1138 ft
Nearby Weather Stations

Elev 1138 ft 39.19 °N, 95.24 °W | Updated 1 minute ago

Overcast
Overcast
17.1 °F
Feels Like 11 °F
N
4.0
Wind Variable Wind from NNE
Gusts 8.0 mph

Today
High -- | Low -- °F
--% Chance of Precip.
Yesterday
High -- | Low -- °F
Precip. -- in
Pressure 30.64 in
Visibility 10.0 miles
Clouds Overcast 9500 ft
Windchill 11 °F
Dew Point 7 °F
Humidity 64%
Rainfall 0.00 in
Snow Depth Not available.
7:15 AM 5:55 PM
Waxing Crescent, 28% visible
METAR KLWC 130852Z AUTO 03007KT 10SM OVC095 M07/M14 A3061 RMK AO2 SLP375 T10671139 50001
Pressure 30.64 in
Visibility 10.0 miles
Clouds Overcast 9500 ft
Windchill 11 °F
Dew Point 7 °F
Humidity 64%
Rainfall 0.00 in
Snow Depth Not available.
7:15 AM 5:55 PM
Waxing Crescent, 28% visible
METAR KLWC 130852Z AUTO 03007KT 10SM OVC095 M07/M14 A3061 RMK AO2 SLP375 T10671139 50001

10-Day Weather Forecast

Almanac

Astronomy

Feb. 13, 2016 Rise Set
Actual Time
Civil Twilight
Nautical Twilight
Astronomical Twilight
Moon
Length of Visible Light
Length of Day
Tomorrow will be .
, % of the Moon is Illuminated

Today's Extremes

State Highs State Lows

Community

WunderPhotos

Upload Photos

1,892,536 photos uploaded!

WunderBlog® & News

Nearby

Air Quality

  Air Quality AQ Index Pollutant
Not available.

Snow Depth

Station Depth Elevation

Earthquake Activity

City Distance Mag. Time & Date
Minimum magnitude displayed is 2.5.

Coastal Water Temperatures

Place Temperature

Stations

Nearby Weather Stations

Station Location Temp. Windchill Dew Point Humidity Wind Precip. Elev Updated Type
                   

Watches & Warnings

There are currently no watches in effect.